sensor_id;sensor_type;location;lat;lon;timestamp;P1;durP1;ratioP1;P2;durP2;ratioP2
52708;SDS011;38606;52.986;6.980;2023-08-08T00:00:49;4.10;;;2.08;;
52708;SDS011;38606;52.986;6.980;2023-08-08T00:03:15;7.40;;;2.40;;
52708;SDS011;38606;52.986;6.980;2023-08-08T00:05:41;3.58;;;2.40;;
52708;SDS011;38606;52.986;6.980;2023-08-08T00:08:06;7.32;;;2.47;;
52708;SDS011;38606;52.986;6.980;2023-08-08T00:10:32;6.22;;;2.40;;
52708;SDS011;38606;52.986;6.980;2023-08-08T00:12:58;5.13;;;2.72;;
52708;SDS011;38606;52.986;6.980;2023-08-08T00:15:23;4.95;;;2.72;;
52708;SDS011;38606;52.986;6.980;2023-08-08T00:17:49;11.00;;;2.88;;
52708;SDS011;38606;52.986;6.980;2023-08-08T00:20:15;7.93;;;3.08;;
52708;SDS011;38606;52.986;6.980;2023-08-08T00:22:41;5.63;;;3.00;;
52708;SDS011;38606;52.986;6.980;2023-08-08T00:25:07;6.65;;;2.95;;
52708;SDS011;38606;52.986;6.980;2023-08-08T00:27:33;7.13;;;3.00;;
52708;SDS011;38606;52.986;6.980;2023-08-08T00:30:00;5.93;;;3.35;;
52708;SDS011;38606;52.986;6.980;2023-08-08T00:32:25;6.93;;;3.30;;
52708;SDS011;38606;52.986;6.980;2023-08-08T00:34:51;6.28;;;3.58;;
52708;SDS011;38606;52.986;6.980;2023-08-08T00:37:17;6.03;;;3.53;;
52708;SDS011;38606;52.986;6.980;2023-08-08T00:39:42;6.35;;;3.28;;
52708;SDS011;38606;52.986;6.980;2023-08-08T00:42:11;6.80;;;3.38;;
52708;SDS011;38606;52.986;6.980;2023-08-08T00:44:38;5.93;;;3.13;;
52708;SDS011;38606;52.986;6.980;2023-08-08T00:47:06;8.20;;;3.88;;
52708;SDS011;38606;52.986;6.980;2023-08-08T00:49:33;6.53;;;3.08;;
52708;SDS011;38606;52.986;6.980;2023-08-08T00:51:59;5.30;;;3.40;;
52708;SDS011;38606;52.986;6.980;2023-08-08T00:54:24;6.50;;;3.60;;
52708;SDS011;38606;52.986;6.980;2023-08-08T00:56:51;3.83;;;3.08;;
52708;SDS011;38606;52.986;6.980;2023-08-08T00:59:16;6.45;;;3.47;;
52708;SDS011;38606;52.986;6.980;2023-08-08T01:01:44;6.65;;;3.50;;
52708;SDS011;38606;52.986;6.980;2023-08-08T01:04:11;5.50;;;3.58;;
52708;SDS011;38606;52.986;6.980;2023-08-08T01:06:37;7.85;;;3.60;;
52708;SDS011;38606;52.986;6.980;2023-08-08T01:09:51;7.63;;;3.42;;
52708;SDS011;38606;52.986;6.980;2023-08-08T01:12:01;8.32;;;3.45;;
52708;SDS011;38606;52.986;6.980;2023-08-08T01:14:28;8.25;;;3.92;;
52708;SDS011;38606;52.986;6.980;2023-08-08T01:16:55;8.73;;;3.55;;
52708;SDS011;38606;52.986;6.980;2023-08-08T01:19:23;8.82;;;4.07;;
52708;SDS011;38606;52.986;6.980;2023-08-08T01:21:52;7.75;;;3.58;;
52708;SDS011;38606;52.986;6.980;2023-08-08T01:24:20;9.00;;;3.63;;
52708;SDS011;38606;52.986;6.980;2023-08-08T01:26:46;7.72;;;3.60;;
52708;SDS011;38606;52.986;6.980;2023-08-08T01:29:13;6.95;;;3.20;;
52708;SDS011;38606;52.986;6.980;2023-08-08T01:31:38;5.80;;;3.38;;
52708;SDS011;38606;52.986;6.980;2023-08-08T01:34:04;8.93;;;3.50;;
52708;SDS011;38606;52.986;6.980;2023-08-08T01:36:31;6.07;;;3.58;;
52708;SDS011;38606;52.986;6.980;2023-08-08T01:39:07;4.80;;;3.40;;
52708;SDS011;38606;52.986;6.980;2023-08-08T01:41:36;8.05;;;3.75;;
52708;SDS011;38606;52.986;6.980;2023-08-08T01:44:04;8.32;;;4.15;;
52708;SDS011;38606;52.986;6.980;2023-08-08T01:46:31;8.32;;;3.90;;
52708;SDS011;38606;52.986;6.980;2023-08-08T01:48:58;5.45;;;3.90;;
52708;SDS011;38606;52.986;6.980;2023-08-08T01:51:27;6.40;;;3.85;;
52708;SDS011;38606;52.986;6.980;2023-08-08T01:53:53;6.53;;;3.80;;
52708;SDS011;38606;52.986;6.980;2023-08-08T01:56:18;9.55;;;3.80;;
52708;SDS011;38606;52.986;6.980;2023-08-08T01:58:44;5.55;;;3.78;;
52708;SDS011;38606;52.986;6.980;2023-08-08T02:01:10;6.95;;;3.95;;
52708;SDS011;38606;52.986;6.980;2023-08-08T02:03:35;7.53;;;4.30;;
52708;SDS011;38606;52.986;6.980;2023-08-08T02:06:01;10.20;;;4.60;;
52708;SDS011;38606;52.986;6.980;2023-08-08T02:08:27;5.85;;;4.07;;
52708;SDS011;38606;52.986;6.980;2023-08-08T02:10:52;12.40;;;4.22;;
52708;SDS011;38606;52.986;6.980;2023-08-08T02:13:18;7.63;;;4.07;;
52708;SDS011;38606;52.986;6.980;2023-08-08T02:15:44;11.90;;;4.65;;
52708;SDS011;38606;52.986;6.980;2023-08-08T02:18:09;8.10;;;4.10;;
52708;SDS011;38606;52.986;6.980;2023-08-08T02:20:36;6.43;;;4.32;;
52708;SDS011;38606;52.986;6.980;2023-08-08T02:23:02;6.55;;;3.80;;
52708;SDS011;38606;52.986;6.980;2023-08-08T02:25:28;9.80;;;4.38;;
52708;SDS011;38606;52.986;6.980;2023-08-08T02:27:55;6.30;;;3.72;;
52708;SDS011;38606;52.986;6.980;2023-08-08T02:30:22;9.02;;;4.40;;
52708;SDS011;38606;52.986;6.980;2023-08-08T02:32:47;6.88;;;4.03;;
52708;SDS011;38606;52.986;6.980;2023-08-08T02:35:13;5.68;;;4.10;;
52708;SDS011;38606;52.986;6.980;2023-08-08T02:37:39;6.90;;;4.10;;
52708;SDS011;38606;52.986;6.980;2023-08-08T02:40:05;6.13;;;4.25;;
52708;SDS011;38606;52.986;6.980;2023-08-08T02:42:31;7.32;;;4.53;;
52708;SDS011;38606;52.986;6.980;2023-08-08T02:44:57;5.78;;;4.20;;
52708;SDS011;38606;52.986;6.980;2023-08-08T02:47:23;6.18;;;3.92;;
52708;SDS011;38606;52.986;6.980;2023-08-08T02:49:49;7.75;;;3.97;;
52708;SDS011;38606;52.986;6.980;2023-08-08T02:52:15;10.30;;;4.30;;
52708;SDS011;38606;52.986;6.980;2023-08-08T02:54:41;8.05;;;4.80;;
52708;SDS011;38606;52.986;6.980;2023-08-08T02:57:07;5.25;;;4.30;;
52708;SDS011;38606;52.986;6.980;2023-08-08T02:59:35;8.15;;;4.00;;
52708;SDS011;38606;52.986;6.980;2023-08-08T03:02:01;7.75;;;4.25;;
52708;SDS011;38606;52.986;6.980;2023-08-08T03:04:28;8.93;;;4.88;;
52708;SDS011;38606;52.986;6.980;2023-08-08T03:06:54;8.35;;;4.15;;
52708;SDS011;38606;52.986;6.980;2023-08-08T03:09:20;7.75;;;4.13;;
52708;SDS011;38606;52.986;6.980;2023-08-08T03:11:45;4.88;;;3.83;;
52708;SDS011;38606;52.986;6.980;2023-08-08T03:14:11;9.57;;;4.20;;
52708;SDS011;38606;52.986;6.980;2023-08-08T03:16:37;9.38;;;3.85;;
52708;SDS011;38606;52.986;6.980;2023-08-08T03:19:03;8.73;;;5.03;;
52708;SDS011;38606;52.986;6.980;2023-08-08T03:21:29;6.85;;;3.80;;
52708;SDS011;38606;52.986;6.980;2023-08-08T03:23:55;6.95;;;3.63;;
52708;SDS011;38606;52.986;6.980;2023-08-08T03:26:21;7.00;;;3.90;;
52708;SDS011;38606;52.986;6.980;2023-08-08T03:28:46;7.43;;;4.05;;
52708;SDS011;38606;52.986;6.980;2023-08-08T03:31:15;10.48;;;3.70;;
52708;SDS011;38606;52.986;6.980;2023-08-08T03:33:42;9.45;;;4.47;;
52708;SDS011;38606;52.986;6.980;2023-08-08T03:36:09;8.68;;;3.75;;
52708;SDS011;38606;52.986;6.980;2023-08-08T03:38:34;9.27;;;4.30;;
52708;SDS011;38606;52.986;6.980;2023-08-08T03:41:02;7.55;;;3.40;;
52708;SDS011;38606;52.986;6.980;2023-08-08T03:43:28;6.10;;;3.63;;
52708;SDS011;38606;52.986;6.980;2023-08-08T03:45:54;8.27;;;3.72;;
52708;SDS011;38606;52.986;6.980;2023-08-08T03:48:20;5.55;;;3.30;;
52708;SDS011;38606;52.986;6.980;2023-08-08T03:50:46;8.13;;;3.58;;
52708;SDS011;38606;52.986;6.980;2023-08-08T03:53:12;10.15;;;3.72;;
52708;SDS011;38606;52.986;6.980;2023-08-08T03:55:38;7.57;;;3.40;;
52708;SDS011;38606;52.986;6.980;2023-08-08T03:58:04;10.60;;;3.95;;
52708;SDS011;38606;52.986;6.980;2023-08-08T04:00:30;9.63;;;2.80;;
52708;SDS011;38606;52.986;6.980;2023-08-08T04:02:56;5.70;;;2.75;;
52708;SDS011;38606;52.986;6.980;2023-08-08T04:05:22;3.95;;;2.10;;
52708;SDS011;38606;52.986;6.980;2023-08-08T04:07:49;11.35;;;3.10;;
52708;SDS011;38606;52.986;6.980;2023-08-08T04:10:14;8.23;;;3.40;;
52708;SDS011;38606;52.986;6.980;2023-08-08T04:12:40;8.40;;;3.33;;
52708;SDS011;38606;52.986;6.980;2023-08-08T04:15:06;7.45;;;3.92;;
52708;SDS011;38606;52.986;6.980;2023-08-08T04:17:32;11.65;;;4.47;;
52708;SDS011;38606;52.986;6.980;2023-08-08T04:19:58;12.60;;;4.22;;
52708;SDS011;38606;52.986;6.980;2023-08-08T04:22:24;7.95;;;3.97;;
52708;SDS011;38606;52.986;6.980;2023-08-08T04:24:49;10.88;;;4.30;;
52708;SDS011;38606;52.986;6.980;2023-08-08T04:27:15;9.65;;;4.47;;
52708;SDS011;38606;52.986;6.980;2023-08-08T04:29:41;7.10;;;4.03;;
52708;SDS011;38606;52.986;6.980;2023-08-08T04:32:06;8.60;;;4.00;;
52708;SDS011;38606;52.986;6.980;2023-08-08T04:34:32;8.90;;;3.60;;
52708;SDS011;38606;52.986;6.980;2023-08-08T04:36:58;9.32;;;3.65;;
52708;SDS011;38606;52.986;6.980;2023-08-08T04:39:23;8.85;;;3.38;;
52708;SDS011;38606;52.986;6.980;2023-08-08T04:41:49;7.53;;;3.38;;
52708;SDS011;38606;52.986;6.980;2023-08-08T04:44:15;7.00;;;3.13;;
52708;SDS011;38606;52.986;6.980;2023-08-08T04:46:40;8.30;;;3.60;;
52708;SDS011;38606;52.986;6.980;2023-08-08T04:49:06;8.35;;;2.85;;
52708;SDS011;38606;52.986;6.980;2023-08-08T04:51:32;7.93;;;3.03;;
52708;SDS011;38606;52.986;6.980;2023-08-08T04:53:58;9.07;;;3.30;;
52708;SDS011;38606;52.986;6.980;2023-08-08T04:56:23;12.38;;;3.70;;
52708;SDS011;38606;52.986;6.980;2023-08-08T04:58:49;6.88;;;3.00;;
52708;SDS011;38606;52.986;6.980;2023-08-08T05:01:14;7.00;;;2.70;;
52708;SDS011;38606;52.986;6.980;2023-08-08T05:03:42;6.72;;;2.45;;
52708;SDS011;38606;52.986;6.980;2023-08-08T05:06:08;10.07;;;2.95;;
52708;SDS011;38606;52.986;6.980;2023-08-08T05:08:34;7.43;;;2.60;;
52708;SDS011;38606;52.986;6.980;2023-08-08T05:10:59;11.25;;;2.65;;
52708;SDS011;38606;52.986;6.980;2023-08-08T05:13:25;7.57;;;3.00;;
52708;SDS011;38606;52.986;6.980;2023-08-08T05:15:51;5.30;;;2.35;;
52708;SDS011;38606;52.986;6.980;2023-08-08T05:18:17;6.40;;;2.42;;
52708;SDS011;38606;52.986;6.980;2023-08-08T05:20:43;7.13;;;2.42;;
52708;SDS011;38606;52.986;6.980;2023-08-08T05:23:08;7.68;;;2.15;;
52708;SDS011;38606;52.986;6.980;2023-08-08T05:25:34;10.85;;;2.65;;
52708;SDS011;38606;52.986;6.980;2023-08-08T05:28:00;9.80;;;2.22;;
52708;SDS011;38606;52.986;6.980;2023-08-08T05:30:25;7.13;;;1.98;;
52708;SDS011;38606;52.986;6.980;2023-08-08T05:32:51;7.90;;;2.35;;
52708;SDS011;38606;52.986;6.980;2023-08-08T05:35:17;7.45;;;2.03;;
52708;SDS011;38606;52.986;6.980;2023-08-08T05:37:42;6.68;;;2.20;;
52708;SDS011;38606;52.986;6.980;2023-08-08T05:40:08;4.28;;;1.73;;
52708;SDS011;38606;52.986;6.980;2023-08-08T05:42:35;9.50;;;2.10;;
52708;SDS011;38606;52.986;6.980;2023-08-08T05:45:02;6.05;;;1.67;;
52708;SDS011;38606;52.986;6.980;2023-08-08T05:47:28;5.35;;;2.05;;
52708;SDS011;38606;52.986;6.980;2023-08-08T05:49:54;8.00;;;1.90;;
52708;SDS011;38606;52.986;6.980;2023-08-08T05:52:20;9.60;;;1.77;;
52708;SDS011;38606;52.986;6.980;2023-08-08T05:54:47;5.03;;;1.80;;
52708;SDS011;38606;52.986;6.980;2023-08-08T05:57:12;13.57;;;2.13;;
52708;SDS011;38606;52.986;6.980;2023-08-08T05:59:38;4.15;;;1.30;;
52708;SDS011;38606;52.986;6.980;2023-08-08T06:02:04;6.50;;;1.67;;
52708;SDS011;38606;52.986;6.980;2023-08-08T06:04:30;8.43;;;1.90;;
52708;SDS011;38606;52.986;6.980;2023-08-08T06:06:55;8.75;;;1.55;;
52708;SDS011;38606;52.986;6.980;2023-08-08T06:09:21;4.25;;;1.73;;
52708;SDS011;38606;52.986;6.980;2023-08-08T06:11:47;4.35;;;1.20;;
52708;SDS011;38606;52.986;6.980;2023-08-08T06:14:13;6.10;;;1.30;;
52708;SDS011;38606;52.986;6.980;2023-08-08T06:16:39;7.30;;;1.27;;
52708;SDS011;38606;52.986;6.980;2023-08-08T06:19:04;5.40;;;1.20;;
52708;SDS011;38606;52.986;6.980;2023-08-08T06:21:31;3.97;;;1.60;;
52708;SDS011;38606;52.986;6.980;2023-08-08T06:23:56;7.97;;;1.23;;
52708;SDS011;38606;52.986;6.980;2023-08-08T06:26:22;4.85;;;1.20;;
52708;SDS011;38606;52.986;6.980;2023-08-08T06:28:49;5.60;;;1.23;;
52708;SDS011;38606;52.986;6.980;2023-08-08T06:31:16;4.10;;;1.35;;
52708;SDS011;38606;52.986;6.980;2023-08-08T06:33:43;4.78;;;1.10;;
52708;SDS011;38606;52.986;6.980;2023-08-08T06:36:08;4.80;;;1.40;;
52708;SDS011;38606;52.986;6.980;2023-08-08T06:38:34;3.45;;;1.23;;
52708;SDS011;38606;52.986;6.980;2023-08-08T06:41:03;4.53;;;1.20;;
52708;SDS011;38606;52.986;6.980;2023-08-08T06:43:29;4.20;;;1.08;;
52708;SDS011;38606;52.986;6.980;2023-08-08T06:45:56;3.90;;;1.13;;
52708;SDS011;38606;52.986;6.980;2023-08-08T06:48:22;7.40;;;1.50;;
52708;SDS011;38606;52.986;6.980;2023-08-08T06:50:48;5.15;;;1.33;;
52708;SDS011;38606;52.986;6.980;2023-08-08T06:53:14;2.78;;;1.05;;
52708;SDS011;38606;52.986;6.980;2023-08-08T06:55:39;5.53;;;1.27;;
52708;SDS011;38606;52.986;6.980;2023-08-08T06:58:05;6.45;;;1.10;;
52708;SDS011;38606;52.986;6.980;2023-08-08T07:00:31;4.82;;;1.00;;
52708;SDS011;38606;52.986;6.980;2023-08-08T07:02:56;5.10;;;0.90;;
52708;SDS011;38606;52.986;6.980;2023-08-08T07:05:22;6.07;;;1.20;;
52708;SDS011;38606;52.986;6.980;2023-08-08T07:07:49;5.97;;;0.95;;
52708;SDS011;38606;52.986;6.980;2023-08-08T07:10:16;5.13;;;1.40;;
52708;SDS011;38606;52.986;6.980;2023-08-08T07:12:41;4.85;;;1.40;;
52708;SDS011;38606;52.986;6.980;2023-08-08T07:15:07;5.78;;;1.50;;
52708;SDS011;38606;52.986;6.980;2023-08-08T07:17:34;4.50;;;1.13;;
52708;SDS011;38606;52.986;6.980;2023-08-08T07:19:59;10.52;;;1.70;;
52708;SDS011;38606;52.986;6.980;2023-08-08T07:22:25;7.28;;;1.38;;
52708;SDS011;38606;52.986;6.980;2023-08-08T07:24:51;4.60;;;1.10;;
52708;SDS011;38606;52.986;6.980;2023-08-08T07:27:17;3.00;;;0.80;;
52708;SDS011;38606;52.986;6.980;2023-08-08T07:29:43;4.72;;;0.95;;
52708;SDS011;38606;52.986;6.980;2023-08-08T07:32:08;8.02;;;1.27;;
52708;SDS011;38606;52.986;6.980;2023-08-08T07:34:34;6.18;;;1.15;;
52708;SDS011;38606;52.986;6.980;2023-08-08T07:37:00;7.38;;;1.50;;
52708;SDS011;38606;52.986;6.980;2023-08-08T07:39:26;3.30;;;0.90;;
52708;SDS011;38606;52.986;6.980;2023-08-08T07:41:51;3.47;;;1.00;;
52708;SDS011;38606;52.986;6.980;2023-08-08T07:44:17;5.55;;;1.27;;
52708;SDS011;38606;52.986;6.980;2023-08-08T07:46:43;2.95;;;1.02;;
52708;SDS011;38606;52.986;6.980;2023-08-08T07:49:08;4.68;;;1.05;;
52708;SDS011;38606;52.986;6.980;2023-08-08T07:51:34;2.72;;;1.20;;
52708;SDS011;38606;52.986;6.980;2023-08-08T07:54:00;2.55;;;0.93;;
52708;SDS011;38606;52.986;6.980;2023-08-08T07:56:26;4.85;;;0.90;;
52708;SDS011;38606;52.986;6.980;2023-08-08T07:58:52;5.80;;;1.00;;
52708;SDS011;38606;52.986;6.980;2023-08-08T08:01:18;4.03;;;1.40;;
52708;SDS011;38606;52.986;6.980;2023-08-08T08:03:44;2.55;;;0.70;;
52708;SDS011;38606;52.986;6.980;2023-08-08T08:06:10;9.15;;;1.55;;
52708;SDS011;38606;52.986;6.980;2023-08-08T08:08:36;3.83;;;0.65;;
52708;SDS011;38606;52.986;6.980;2023-08-08T08:11:02;6.50;;;0.93;;
52708;SDS011;38606;52.986;6.980;2023-08-08T08:13:27;3.30;;;1.23;;
52708;SDS011;38606;52.986;6.980;2023-08-08T08:15:53;5.53;;;1.00;;
52708;SDS011;38606;52.986;6.980;2023-08-08T08:18:19;4.72;;;0.82;;
52708;SDS011;38606;52.986;6.980;2023-08-08T08:20:45;6.57;;;0.85;;
52708;SDS011;38606;52.986;6.980;2023-08-08T08:23:12;4.90;;;0.90;;
52708;SDS011;38606;52.986;6.980;2023-08-08T08:25:38;4.78;;;0.80;;
52708;SDS011;38606;52.986;6.980;2023-08-08T08:28:03;3.50;;;1.05;;
52708;SDS011;38606;52.986;6.980;2023-08-08T08:30:29;4.85;;;1.15;;
52708;SDS011;38606;52.986;6.980;2023-08-08T08:32:55;4.97;;;0.90;;
52708;SDS011;38606;52.986;6.980;2023-08-08T08:35:25;4.65;;;1.15;;
52708;SDS011;38606;52.986;6.980;2023-08-08T08:37:51;5.35;;;1.00;;
52708;SDS011;38606;52.986;6.980;2023-08-08T08:40:17;3.38;;;0.90;;
52708;SDS011;38606;52.986;6.980;2023-08-08T08:42:43;3.28;;;0.90;;
52708;SDS011;38606;52.986;6.980;2023-08-08T08:45:11;5.97;;;0.90;;
52708;SDS011;38606;52.986;6.980;2023-08-08T08:47:37;4.60;;;1.17;;
52708;SDS011;38606;52.986;6.980;2023-08-08T08:50:06;3.38;;;0.90;;
52708;SDS011;38606;52.986;6.980;2023-08-08T08:52:32;2.88;;;0.82;;
52708;SDS011;38606;52.986;6.980;2023-08-08T08:54:58;4.82;;;1.02;;
52708;SDS011;38606;52.986;6.980;2023-08-08T08:57:24;4.80;;;0.80;;
52708;SDS011;38606;52.986;6.980;2023-08-08T08:59:50;7.20;;;0.90;;
52708;SDS011;38606;52.986;6.980;2023-08-08T09:02:17;4.90;;;0.90;;
52708;SDS011;38606;52.986;6.980;2023-08-08T09:04:43;5.47;;;1.20;;
52708;SDS011;38606;52.986;6.980;2023-08-08T09:07:10;5.55;;;1.10;;
52708;SDS011;38606;52.986;6.980;2023-08-08T09:09:37;3.47;;;0.90;;
52708;SDS011;38606;52.986;6.980;2023-08-08T09:12:04;4.82;;;1.10;;
52708;SDS011;38606;52.986;6.980;2023-08-08T09:14:30;5.15;;;0.90;;
52708;SDS011;38606;52.986;6.980;2023-08-08T09:16:56;4.72;;;1.30;;
52708;SDS011;38606;52.986;6.980;2023-08-08T09:19:22;4.80;;;1.15;;
52708;SDS011;38606;52.986;6.980;2023-08-08T09:21:49;4.07;;;1.20;;
52708;SDS011;38606;52.986;6.980;2023-08-08T09:24:16;4.88;;;0.77;;
52708;SDS011;38606;52.986;6.980;2023-08-08T09:26:43;4.95;;;0.93;;
52708;SDS011;38606;52.986;6.980;2023-08-08T09:29:10;4.22;;;1.10;;
52708;SDS011;38606;52.986;6.980;2023-08-08T09:31:38;5.22;;;1.10;;
52708;SDS011;38606;52.986;6.980;2023-08-08T09:34:05;4.40;;;0.95;;
52708;SDS011;38606;52.986;6.980;2023-08-08T09:36:31;4.25;;;0.98;;
52708;SDS011;38606;52.986;6.980;2023-08-08T09:38:58;3.92;;;0.82;;
52708;SDS011;38606;52.986;6.980;2023-08-08T09:41:24;4.45;;;1.25;;
52708;SDS011;38606;52.986;6.980;2023-08-08T09:43:52;4.25;;;1.15;;
52708;SDS011;38606;52.986;6.980;2023-08-08T09:46:18;8.05;;;1.35;;
52708;SDS011;38606;52.986;6.980;2023-08-08T09:48:45;6.15;;;1.05;;
52708;SDS011;38606;52.986;6.980;2023-08-08T09:51:11;3.60;;;0.90;;
52708;SDS011;38606;52.986;6.980;2023-08-08T09:53:38;2.58;;;0.90;;
52708;SDS011;38606;52.986;6.980;2023-08-08T09:56:04;4.57;;;1.00;;
52708;SDS011;38606;52.986;6.980;2023-08-08T09:58:31;4.38;;;0.88;;
52708;SDS011;38606;52.986;6.980;2023-08-08T10:00:57;4.68;;;1.13;;
52708;SDS011;38606;52.986;6.980;2023-08-08T10:03:23;4.78;;;0.85;;
52708;SDS011;38606;52.986;6.980;2023-08-08T10:05:49;3.35;;;1.00;;
52708;SDS011;38606;52.986;6.980;2023-08-08T10:08:15;4.60;;;0.82;;
52708;SDS011;38606;52.986;6.980;2023-08-08T10:10:46;5.40;;;0.90;;
52708;SDS011;38606;52.986;6.980;2023-08-08T10:13:22;5.88;;;1.00;;
52708;SDS011;38606;52.986;6.980;2023-08-08T10:15:49;4.88;;;1.15;;
52708;SDS011;38606;52.986;6.980;2023-08-08T10:18:16;4.25;;;1.10;;
52708;SDS011;38606;52.986;6.980;2023-08-08T10:20:43;4.03;;;1.02;;
52708;SDS011;38606;52.986;6.980;2023-08-08T10:23:14;4.25;;;0.90;;
52708;SDS011;38606;52.986;6.980;2023-08-08T10:25:47;3.33;;;1.00;;
52708;SDS011;38606;52.986;6.980;2023-08-08T10:28:16;3.90;;;0.80;;
52708;SDS011;38606;52.986;6.980;2023-08-08T10:30:44;5.03;;;0.95;;
52708;SDS011;38606;52.986;6.980;2023-08-08T10:34:00;4.18;;;1.00;;
52708;SDS011;38606;52.986;6.980;2023-08-08T10:36:09;7.00;;;1.38;;
52708;SDS011;38606;52.986;6.980;2023-08-08T10:38:45;4.82;;;1.00;;
52708;SDS011;38606;52.986;6.980;2023-08-08T10:41:15;7.95;;;1.40;;
52708;SDS011;38606;52.986;6.980;2023-08-08T10:46:22;3.85;;;1.00;;
52708;SDS011;38606;52.986;6.980;2023-08-08T10:48:59;2.80;;;0.90;;
52708;SDS011;38606;52.986;6.980;2023-08-08T10:51:33;3.88;;;1.20;;
52708;SDS011;38606;52.986;6.980;2023-08-08T10:54:14;3.10;;;1.02;;
52708;SDS011;38606;52.986;6.980;2023-08-08T10:56:55;9.15;;;1.33;;
52708;SDS011;38606;52.986;6.980;2023-08-08T10:59:27;8.77;;;1.52;;
52708;SDS011;38606;52.986;6.980;2023-08-08T11:02:01;5.72;;;1.00;;
52708;SDS011;38606;52.986;6.980;2023-08-08T11:04:28;3.83;;;0.77;;
52708;SDS011;38606;52.986;6.980;2023-08-08T11:06:55;6.32;;;1.05;;
52708;SDS011;38606;52.986;6.980;2023-08-08T11:09:22;2.20;;;0.80;;
52708;SDS011;38606;52.986;6.980;2023-08-08T11:11:48;3.13;;;1.10;;
52708;SDS011;38606;52.986;6.980;2023-08-08T11:14:18;6.07;;;1.17;;
52708;SDS011;38606;52.986;6.980;2023-08-08T11:16:48;5.40;;;1.25;;
52708;SDS011;38606;52.986;6.980;2023-08-08T11:19:15;5.18;;;0.90;;
52708;SDS011;38606;52.986;6.980;2023-08-08T11:21:45;4.50;;;1.02;;
52708;SDS011;38606;52.986;6.980;2023-08-08T11:24:11;6.60;;;1.17;;
52708;SDS011;38606;52.986;6.980;2023-08-08T11:26:39;5.55;;;1.30;;
52708;SDS011;38606;52.986;6.980;2023-08-08T11:29:06;4.10;;;1.15;;
52708;SDS011;38606;52.986;6.980;2023-08-08T11:31:35;5.40;;;1.75;;
52708;SDS011;38606;52.986;6.980;2023-08-08T11:34:03;5.97;;;1.50;;
52708;SDS011;38606;52.986;6.980;2023-08-08T11:36:33;5.15;;;1.00;;
52708;SDS011;38606;52.986;6.980;2023-08-08T11:39:01;4.00;;;1.13;;
52708;SDS011;38606;52.986;6.980;2023-08-08T11:41:33;2.92;;;1.02;;
52708;SDS011;38606;52.986;6.980;2023-08-08T11:44:00;5.65;;;1.20;;
52708;SDS011;38606;52.986;6.980;2023-08-08T11:46:27;9.48;;;1.92;;
52708;SDS011;38606;52.986;6.980;2023-08-08T11:48:52;5.93;;;1.42;;
52708;SDS011;38606;52.986;6.980;2023-08-08T11:51:18;3.38;;;0.90;;
52708;SDS011;38606;52.986;6.980;2023-08-08T11:53:51;9.45;;;1.15;;
52708;SDS011;38606;52.986;6.980;2023-08-08T11:56:19;5.05;;;1.30;;
52708;SDS011;38606;52.986;6.980;2023-08-08T11:58:45;6.35;;;1.38;;
52708;SDS011;38606;52.986;6.980;2023-08-08T12:01:12;4.32;;;1.38;;
52708;SDS011;38606;52.986;6.980;2023-08-08T12:03:39;3.92;;;1.55;;
52708;SDS011;38606;52.986;6.980;2023-08-08T12:06:12;5.60;;;1.30;;
52708;SDS011;38606;52.986;6.980;2023-08-08T12:11:05;8.35;;;1.23;;
52708;SDS011;38606;52.986;6.980;2023-08-08T12:13:31;4.30;;;0.90;;
52708;SDS011;38606;52.986;6.980;2023-08-08T12:15:58;3.60;;;0.80;;
52708;SDS011;38606;52.986;6.980;2023-08-08T12:18:24;3.58;;;0.90;;
52708;SDS011;38606;52.986;6.980;2023-08-08T12:20:49;5.60;;;1.08;;
52708;SDS011;38606;52.986;6.980;2023-08-08T12:23:15;4.88;;;1.20;;
52708;SDS011;38606;52.986;6.980;2023-08-08T12:25:42;2.17;;;0.98;;
52708;SDS011;38606;52.986;6.980;2023-08-08T12:28:08;5.10;;;0.90;;
52708;SDS011;38606;52.986;6.980;2023-08-08T12:30:34;6.45;;;1.30;;
52708;SDS011;38606;52.986;6.980;2023-08-08T12:33:00;3.65;;;0.80;;
52708;SDS011;38606;52.986;6.980;2023-08-08T12:35:26;5.22;;;1.00;;
52708;SDS011;38606;52.986;6.980;2023-08-08T12:37:52;3.58;;;0.90;;
52708;SDS011;38606;52.986;6.980;2023-08-08T12:40:18;5.90;;;1.00;;
52708;SDS011;38606;52.986;6.980;2023-08-08T12:42:44;6.13;;;1.00;;
52708;SDS011;38606;52.986;6.980;2023-08-08T12:45:10;4.15;;;1.05;;
52708;SDS011;38606;52.986;6.980;2023-08-08T12:47:36;6.57;;;0.93;;
52708;SDS011;38606;52.986;6.980;2023-08-08T12:50:03;1.77;;;0.65;;
52708;SDS011;38606;52.986;6.980;2023-08-08T12:52:29;5.28;;;1.33;;
52708;SDS011;38606;52.986;6.980;2023-08-08T12:54:55;3.05;;;0.75;;
52708;SDS011;38606;52.986;6.980;2023-08-08T12:57:21;4.93;;;0.90;;
52708;SDS011;38606;52.986;6.980;2023-08-08T12:59:46;2.60;;;0.68;;
52708;SDS011;38606;52.986;6.980;2023-08-08T13:02:12;4.53;;;0.80;;
52708;SDS011;38606;52.986;6.980;2023-08-08T13:04:38;4.00;;;1.25;;
52708;SDS011;38606;52.986;6.980;2023-08-08T13:13:39;3.83;;;0.98;;
52708;SDS011;38606;52.986;6.980;2023-08-08T13:16:05;5.38;;;1.13;;
52708;SDS011;38606;52.986;6.980;2023-08-08T13:18:30;3.50;;;1.00;;
52708;SDS011;38606;52.986;6.980;2023-08-08T13:20:56;5.00;;;0.80;;
52708;SDS011;38606;52.986;6.980;2023-08-08T13:23:22;4.28;;;1.08;;
52708;SDS011;38606;52.986;6.980;2023-08-08T13:25:47;5.00;;;0.82;;
52708;SDS011;38606;52.986;6.980;2023-08-08T13:28:14;3.30;;;0.70;;
52708;SDS011;38606;52.986;6.980;2023-08-08T13:30:40;2.35;;;0.95;;
52708;SDS011;38606;52.986;6.980;2023-08-08T13:33:07;3.55;;;0.75;;
52708;SDS011;38606;52.986;6.980;2023-08-08T13:35:33;2.60;;;0.65;;
52708;SDS011;38606;52.986;6.980;2023-08-08T13:37:59;3.70;;;0.70;;
52708;SDS011;38606;52.986;6.980;2023-08-08T13:40:25;4.47;;;1.30;;
52708;SDS011;38606;52.986;6.980;2023-08-08T13:42:51;1.90;;;0.80;;
52708;SDS011;38606;52.986;6.980;2023-08-08T13:45:20;5.82;;;0.90;;
52708;SDS011;38606;52.986;6.980;2023-08-08T13:47:47;3.67;;;0.75;;
52708;SDS011;38606;52.986;6.980;2023-08-08T13:50:13;5.72;;;1.00;;
52708;SDS011;38606;52.986;6.980;2023-08-08T13:52:39;5.95;;;1.02;;
52708;SDS011;38606;52.986;6.980;2023-08-08T13:55:06;3.22;;;0.80;;
52708;SDS011;38606;52.986;6.980;2023-08-08T13:57:32;4.93;;;1.10;;
52708;SDS011;38606;52.986;6.980;2023-08-08T13:59:58;7.80;;;1.15;;
52708;SDS011;38606;52.986;6.980;2023-08-08T14:02:24;5.68;;;1.40;;
52708;SDS011;38606;52.986;6.980;2023-08-08T14:04:49;5.43;;;1.05;;
52708;SDS011;38606;52.986;6.980;2023-08-08T14:07:15;7.00;;;1.40;;
52708;SDS011;38606;52.986;6.980;2023-08-08T14:09:41;5.07;;;1.25;;
52708;SDS011;38606;52.986;6.980;2023-08-08T14:12:07;3.00;;;1.23;;
52708;SDS011;38606;52.986;6.980;2023-08-08T14:14:33;6.07;;;1.00;;
52708;SDS011;38606;52.986;6.980;2023-08-08T14:16:58;4.78;;;0.85;;
52708;SDS011;38606;52.986;6.980;2023-08-08T14:19:24;6.47;;;1.20;;
52708;SDS011;38606;52.986;6.980;2023-08-08T14:21:50;4.50;;;1.00;;
52708;SDS011;38606;52.986;6.980;2023-08-08T14:24:16;5.50;;;1.10;;
52708;SDS011;38606;52.986;6.980;2023-08-08T14:26:41;5.82;;;1.08;;
52708;SDS011;38606;52.986;6.980;2023-08-08T14:29:07;3.38;;;0.90;;
52708;SDS011;38606;52.986;6.980;2023-08-08T14:31:33;5.72;;;1.00;;
52708;SDS011;38606;52.986;6.980;2023-08-08T14:33:59;8.02;;;0.85;;
52708;SDS011;38606;52.986;6.980;2023-08-08T14:36:24;6.50;;;0.95;;
52708;SDS011;38606;52.986;6.980;2023-08-08T14:38:50;3.90;;;0.98;;
52708;SDS011;38606;52.986;6.980;2023-08-08T14:41:16;4.22;;;1.30;;
52708;SDS011;38606;52.986;6.980;2023-08-08T14:43:41;2.25;;;0.98;;
52708;SDS011;38606;52.986;6.980;2023-08-08T14:46:07;4.88;;;1.20;;
52708;SDS011;38606;52.986;6.980;2023-08-08T14:48:33;1.38;;;0.60;;
52708;SDS011;38606;52.986;6.980;2023-08-08T14:51:01;6.18;;;1.30;;
52708;SDS011;38606;52.986;6.980;2023-08-08T14:53:28;5.20;;;0.90;;
52708;SDS011;38606;52.986;6.980;2023-08-08T14:55:54;5.18;;;1.00;;